sensor_id;sensor_type;location;lat;lon;timestamp;P1;durP1;ratioP1;P2;durP2;ratioP2
980;SDS011;479;53.514;9.994;2023-10-13T00:02:09;4.40;;;2.47;;
980;SDS011;479;53.514;9.994;2023-10-13T00:04:36;3.50;;;2.10;;
980;SDS011;479;53.514;9.994;2023-10-13T00:07:03;2.17;;;1.97;;
980;SDS011;479;53.514;9.994;2023-10-13T00:09:34;5.93;;;2.60;;
980;SDS011;479;53.514;9.994;2023-10-13T00:12:05;3.10;;;2.20;;
980;SDS011;479;53.514;9.994;2023-10-13T00:14:38;5.77;;;2.67;;
980;SDS011;479;53.514;9.994;2023-10-13T00:17:12;6.33;;;2.50;;
980;SDS011;479;53.514;9.994;2023-10-13T00:19:45;6.13;;;3.00;;
980;SDS011;479;53.514;9.994;2023-10-13T00:22:17;4.37;;;2.60;;
980;SDS011;479;53.514;9.994;2023-10-13T00:24:47;6.03;;;2.73;;
980;SDS011;479;53.514;9.994;2023-10-13T00:27:25;3.10;;;2.57;;
980;SDS011;479;53.514;9.994;2023-10-13T00:29:56;2.70;;;2.50;;
980;SDS011;479;53.514;9.994;2023-10-13T00:32:46;4.10;;;2.93;;
980;SDS011;479;53.514;9.994;2023-10-13T00:35:19;3.80;;;2.63;;
980;SDS011;479;53.514;9.994;2023-10-13T00:37:58;5.83;;;3.17;;
980;SDS011;479;53.514;9.994;2023-10-13T00:40:38;4.50;;;3.37;;
980;SDS011;479;53.514;9.994;2023-10-13T00:43:18;7.13;;;2.90;;
980;SDS011;479;53.514;9.994;2023-10-13T00:46:03;5.20;;;3.00;;
980;SDS011;479;53.514;9.994;2023-10-13T00:48:40;5.27;;;3.07;;
980;SDS011;479;53.514;9.994;2023-10-13T00:51:11;4.43;;;2.97;;
980;SDS011;479;53.514;9.994;2023-10-13T00:53:44;7.20;;;3.80;;
980;SDS011;479;53.514;9.994;2023-10-13T00:56:13;8.57;;;3.40;;
980;SDS011;479;53.514;9.994;2023-10-13T00:58:50;8.03;;;3.57;;
980;SDS011;479;53.514;9.994;2023-10-13T01:01:20;6.10;;;4.60;;
980;SDS011;479;53.514;9.994;2023-10-13T01:03:54;8.63;;;3.50;;
980;SDS011;479;53.514;9.994;2023-10-13T01:06:28;7.53;;;4.40;;
980;SDS011;479;53.514;9.994;2023-10-13T01:08:57;5.77;;;3.57;;
980;SDS011;479;53.514;9.994;2023-10-13T01:11:25;4.40;;;3.40;;
980;SDS011;479;53.514;9.994;2023-10-13T01:13:54;4.80;;;3.30;;
980;SDS011;479;53.514;9.994;2023-10-13T01:16:23;10.90;;;3.67;;
980;SDS011;479;53.514;9.994;2023-10-13T01:18:52;4.63;;;3.00;;
980;SDS011;479;53.514;9.994;2023-10-13T01:21:18;7.20;;;3.90;;
980;SDS011;479;53.514;9.994;2023-10-13T01:23:55;5.20;;;3.60;;
980;SDS011;479;53.514;9.994;2023-10-13T01:26:21;7.60;;;3.43;;
980;SDS011;479;53.514;9.994;2023-10-13T01:28:56;7.93;;;3.13;;
980;SDS011;479;53.514;9.994;2023-10-13T01:31:23;3.90;;;3.20;;
980;SDS011;479;53.514;9.994;2023-10-13T01:34:02;4.23;;;3.17;;
980;SDS011;479;53.514;9.994;2023-10-13T01:36:29;8.63;;;5.33;;
980;SDS011;479;53.514;9.994;2023-10-13T01:39:02;8.33;;;3.40;;
980;SDS011;479;53.514;9.994;2023-10-13T01:41:31;4.67;;;4.27;;
980;SDS011;479;53.514;9.994;2023-10-13T01:44:04;6.10;;;4.10;;
980;SDS011;479;53.514;9.994;2023-10-13T01:46:32;6.63;;;3.83;;
980;SDS011;479;53.514;9.994;2023-10-13T01:49:04;6.17;;;4.80;;
980;SDS011;479;53.514;9.994;2023-10-13T01:51:37;7.83;;;3.43;;
980;SDS011;479;53.514;9.994;2023-10-13T01:54:13;9.97;;;3.90;;
980;SDS011;479;53.514;9.994;2023-10-13T01:56:45;11.23;;;5.10;;
980;SDS011;479;53.514;9.994;2023-10-13T01:59:20;7.47;;;4.17;;
980;SDS011;479;53.514;9.994;2023-10-13T02:01:50;7.30;;;6.60;;
980;SDS011;479;53.514;9.994;2023-10-13T02:04:22;8.17;;;3.40;;
980;SDS011;479;53.514;9.994;2023-10-13T02:06:49;5.50;;;4.63;;
980;SDS011;479;53.514;9.994;2023-10-13T02:09:19;12.23;;;5.30;;
980;SDS011;479;53.514;9.994;2023-10-13T02:11:52;10.50;;;5.10;;
980;SDS011;479;53.514;9.994;2023-10-13T02:14:20;6.90;;;4.87;;
980;SDS011;479;53.514;9.994;2023-10-13T02:16:58;9.13;;;5.07;;
980;SDS011;479;53.514;9.994;2023-10-13T02:19:38;9.83;;;5.30;;
980;SDS011;479;53.514;9.994;2023-10-13T02:22:11;12.10;;;5.90;;
980;SDS011;479;53.514;9.994;2023-10-13T02:24:53;10.77;;;5.80;;
980;SDS011;479;53.514;9.994;2023-10-13T02:27:26;8.47;;;5.17;;
980;SDS011;479;53.514;9.994;2023-10-13T02:29:53;10.63;;;5.30;;
980;SDS011;479;53.514;9.994;2023-10-13T02:32:25;9.53;;;6.23;;
980;SDS011;479;53.514;9.994;2023-10-13T02:34:53;11.93;;;6.40;;
980;SDS011;479;53.514;9.994;2023-10-13T02:37:23;12.23;;;6.40;;
980;SDS011;479;53.514;9.994;2023-10-13T02:39:49;10.47;;;5.73;;
980;SDS011;479;53.514;9.994;2023-10-13T02:42:23;16.17;;;6.30;;
980;SDS011;479;53.514;9.994;2023-10-13T02:44:50;8.30;;;5.90;;
980;SDS011;479;53.514;9.994;2023-10-13T02:47:23;14.63;;;7.47;;
980;SDS011;479;53.514;9.994;2023-10-13T02:49:49;17.97;;;6.60;;
980;SDS011;479;53.514;9.994;2023-10-13T02:52:18;10.90;;;6.47;;
980;SDS011;479;53.514;9.994;2023-10-13T02:54:45;10.63;;;6.60;;
980;SDS011;479;53.514;9.994;2023-10-13T02:57:15;13.10;;;6.93;;
980;SDS011;479;53.514;9.994;2023-10-13T02:59:43;8.37;;;6.53;;
980;SDS011;479;53.514;9.994;2023-10-13T03:02:12;15.60;;;8.83;;
980;SDS011;479;53.514;9.994;2023-10-13T03:04:49;9.30;;;6.83;;
980;SDS011;479;53.514;9.994;2023-10-13T03:07:16;10.70;;;6.93;;
980;SDS011;479;53.514;9.994;2023-10-13T03:09:48;10.80;;;7.80;;
980;SDS011;479;53.514;9.994;2023-10-13T03:12:19;10.90;;;7.20;;
980;SDS011;479;53.514;9.994;2023-10-13T03:14:47;9.00;;;6.07;;
980;SDS011;479;53.514;9.994;2023-10-13T03:17:14;12.73;;;7.10;;
980;SDS011;479;53.514;9.994;2023-10-13T03:19:42;15.43;;;8.00;;
980;SDS011;479;53.514;9.994;2023-10-13T03:22:15;11.80;;;7.33;;
980;SDS011;479;53.514;9.994;2023-10-13T03:24:42;13.07;;;8.00;;
980;SDS011;479;53.514;9.994;2023-10-13T03:27:11;10.00;;;7.23;;
980;SDS011;479;53.514;9.994;2023-10-13T03:29:41;9.07;;;7.10;;
980;SDS011;479;53.514;9.994;2023-10-13T03:32:10;11.43;;;7.20;;
980;SDS011;479;53.514;9.994;2023-10-13T03:34:38;8.93;;;7.00;;
980;SDS011;479;53.514;9.994;2023-10-13T03:37:15;12.83;;;6.07;;
980;SDS011;479;53.514;9.994;2023-10-13T03:39:44;8.97;;;6.50;;
980;SDS011;479;53.514;9.994;2023-10-13T03:42:11;8.90;;;5.73;;
980;SDS011;479;53.514;9.994;2023-10-13T03:44:44;9.50;;;5.97;;
980;SDS011;479;53.514;9.994;2023-10-13T03:47:13;9.83;;;6.03;;
980;SDS011;479;53.514;9.994;2023-10-13T03:49:52;7.17;;;5.93;;
980;SDS011;479;53.514;9.994;2023-10-13T03:52:39;14.23;;;7.73;;
980;SDS011;479;53.514;9.994;2023-10-13T03:55:06;16.63;;;6.90;;
980;SDS011;479;53.514;9.994;2023-10-13T03:57:41;9.17;;;6.43;;
980;SDS011;479;53.514;9.994;2023-10-13T04:00:08;11.33;;;7.07;;
980;SDS011;479;53.514;9.994;2023-10-13T04:02:48;10.70;;;6.73;;
980;SDS011;479;53.514;9.994;2023-10-13T04:05:20;10.93;;;6.43;;
980;SDS011;479;53.514;9.994;2023-10-13T04:08:01;7.93;;;5.60;;
980;SDS011;479;53.514;9.994;2023-10-13T04:10:55;9.47;;;6.47;;
980;SDS011;479;53.514;9.994;2023-10-13T04:13:40;11.10;;;7.23;;
980;SDS011;479;53.514;9.994;2023-10-13T04:16:30;10.90;;;7.30;;
980;SDS011;479;53.514;9.994;2023-10-13T04:19:17;8.37;;;6.70;;
980;SDS011;479;53.514;9.994;2023-10-13T04:21:49;10.73;;;7.30;;
980;SDS011;479;53.514;9.994;2023-10-13T04:24:39;9.03;;;6.33;;
980;SDS011;479;53.514;9.994;2023-10-13T04:27:20;14.03;;;6.30;;
980;SDS011;479;53.514;9.994;2023-10-13T04:30:09;9.73;;;7.00;;
980;SDS011;479;53.514;9.994;2023-10-13T04:32:36;8.40;;;6.50;;
980;SDS011;479;53.514;9.994;2023-10-13T04:35:12;12.10;;;7.17;;
980;SDS011;479;53.514;9.994;2023-10-13T04:37:43;9.50;;;6.87;;
980;SDS011;479;53.514;9.994;2023-10-13T04:40:19;8.20;;;6.43;;
980;SDS011;479;53.514;9.994;2023-10-13T04:42:50;10.60;;;7.30;;
980;SDS011;479;53.514;9.994;2023-10-13T04:45:19;15.10;;;7.77;;
980;SDS011;479;53.514;9.994;2023-10-13T04:48:03;10.70;;;8.80;;
980;SDS011;479;53.514;9.994;2023-10-13T04:50:45;15.40;;;8.77;;
980;SDS011;479;53.514;9.994;2023-10-13T04:53:16;14.07;;;9.70;;
980;SDS011;479;53.514;9.994;2023-10-13T04:55:58;14.83;;;10.10;;
980;SDS011;479;53.514;9.994;2023-10-13T04:58:53;16.30;;;12.37;;
980;SDS011;479;53.514;9.994;2023-10-13T05:01:37;13.57;;;10.50;;
980;SDS011;479;53.514;9.994;2023-10-13T05:04:22;17.70;;;13.97;;
980;SDS011;479;53.514;9.994;2023-10-13T05:07:05;16.47;;;12.03;;
980;SDS011;479;53.514;9.994;2023-10-13T05:09:49;21.60;;;12.70;;
980;SDS011;479;53.514;9.994;2023-10-13T05:12:34;22.87;;;13.60;;
980;SDS011;479;53.514;9.994;2023-10-13T05:15:18;20.87;;;14.40;;
980;SDS011;479;53.514;9.994;2023-10-13T05:18:03;19.97;;;13.57;;
980;SDS011;479;53.514;9.994;2023-10-13T05:20:48;20.57;;;13.77;;
980;SDS011;479;53.514;9.994;2023-10-13T05:23:33;23.50;;;16.50;;
980;SDS011;479;53.514;9.994;2023-10-13T05:26:18;19.63;;;13.83;;
980;SDS011;479;53.514;9.994;2023-10-13T05:29:02;21.27;;;13.67;;
980;SDS011;479;53.514;9.994;2023-10-13T05:31:47;21.90;;;14.00;;
980;SDS011;479;53.514;9.994;2023-10-13T05:34:31;25.53;;;15.53;;
980;SDS011;479;53.514;9.994;2023-10-13T05:37:16;19.97;;;14.73;;
980;SDS011;479;53.514;9.994;2023-10-13T05:40:02;22.63;;;14.00;;
980;SDS011;479;53.514;9.994;2023-10-13T05:42:47;26.37;;;15.53;;
980;SDS011;479;53.514;9.994;2023-10-13T05:45:34;21.37;;;15.10;;
980;SDS011;479;53.514;9.994;2023-10-13T05:48:26;21.90;;;15.80;;
980;SDS011;479;53.514;9.994;2023-10-13T05:51:07;21.33;;;15.07;;
980;SDS011;479;53.514;9.994;2023-10-13T05:53:52;24.87;;;16.43;;
980;SDS011;479;53.514;9.994;2023-10-13T05:56:38;24.83;;;16.50;;
980;SDS011;479;53.514;9.994;2023-10-13T05:59:22;24.47;;;16.30;;
980;SDS011;479;53.514;9.994;2023-10-13T06:02:07;24.43;;;15.93;;
980;SDS011;479;53.514;9.994;2023-10-13T06:04:52;22.40;;;15.17;;
980;SDS011;479;53.514;9.994;2023-10-13T06:07:37;22.30;;;14.60;;
980;SDS011;479;53.514;9.994;2023-10-13T06:10:20;28.17;;;16.80;;
980;SDS011;479;53.514;9.994;2023-10-13T06:13:06;20.53;;;15.30;;
980;SDS011;479;53.514;9.994;2023-10-13T06:15:51;26.30;;;16.00;;
980;SDS011;479;53.514;9.994;2023-10-13T06:18:36;22.87;;;15.73;;
980;SDS011;479;53.514;9.994;2023-10-13T06:21:21;23.43;;;14.97;;
980;SDS011;479;53.514;9.994;2023-10-13T06:24:05;24.43;;;15.33;;
980;SDS011;479;53.514;9.994;2023-10-13T06:26:51;25.63;;;16.50;;
980;SDS011;479;53.514;9.994;2023-10-13T06:29:37;29.30;;;16.57;;
980;SDS011;479;53.514;9.994;2023-10-13T06:32:04;26.30;;;16.10;;
980;SDS011;479;53.514;9.994;2023-10-13T06:34:36;28.27;;;17.00;;
980;SDS011;479;53.514;9.994;2023-10-13T06:37:10;35.63;;;19.10;;
980;SDS011;479;53.514;9.994;2023-10-13T06:39:48;24.60;;;17.60;;
980;SDS011;479;53.514;9.994;2023-10-13T06:42:15;25.30;;;16.43;;
980;SDS011;479;53.514;9.994;2023-10-13T06:44:45;28.10;;;18.30;;
980;SDS011;479;53.514;9.994;2023-10-13T06:47:12;21.77;;;15.87;;
980;SDS011;479;53.514;9.994;2023-10-13T06:49:40;26.03;;;17.93;;
980;SDS011;479;53.514;9.994;2023-10-13T06:52:08;32.07;;;18.40;;
980;SDS011;479;53.514;9.994;2023-10-13T06:54:36;27.97;;;20.10;;
980;SDS011;479;53.514;9.994;2023-10-13T06:57:04;30.10;;;19.50;;
980;SDS011;479;53.514;9.994;2023-10-13T06:59:32;30.23;;;19.37;;
980;SDS011;479;53.514;9.994;2023-10-13T07:02:01;25.87;;;17.77;;
980;SDS011;479;53.514;9.994;2023-10-13T07:04:30;31.67;;;17.80;;
980;SDS011;479;53.514;9.994;2023-10-13T07:06:57;29.10;;;18.57;;
980;SDS011;479;53.514;9.994;2023-10-13T07:09:26;27.97;;;18.67;;
980;SDS011;479;53.514;9.994;2023-10-13T07:12:14;28.87;;;19.30;;
980;SDS011;479;53.514;9.994;2023-10-13T07:14:47;28.73;;;17.73;;
980;SDS011;479;53.514;9.994;2023-10-13T07:17:19;25.37;;;17.27;;
980;SDS011;479;53.514;9.994;2023-10-13T07:19:52;22.60;;;15.70;;
980;SDS011;479;53.514;9.994;2023-10-13T07:22:19;23.33;;;17.47;;
980;SDS011;479;53.514;9.994;2023-10-13T07:24:47;24.10;;;16.30;;
980;SDS011;479;53.514;9.994;2023-10-13T07:27:15;25.97;;;17.60;;
980;SDS011;479;53.514;9.994;2023-10-13T07:29:48;25.50;;;16.10;;
980;SDS011;479;53.514;9.994;2023-10-13T07:32:24;18.90;;;13.80;;
980;SDS011;479;53.514;9.994;2023-10-13T07:34:54;25.70;;;16.90;;
980;SDS011;479;53.514;9.994;2023-10-13T07:37:22;21.13;;;15.93;;
980;SDS011;479;53.514;9.994;2023-10-13T07:39:54;22.80;;;15.83;;
980;SDS011;479;53.514;9.994;2023-10-13T07:42:24;22.37;;;14.97;;
980;SDS011;479;53.514;9.994;2023-10-13T07:44:57;18.20;;;12.90;;
980;SDS011;479;53.514;9.994;2023-10-13T07:47:26;21.60;;;16.13;;
980;SDS011;479;53.514;9.994;2023-10-13T07:49:53;16.60;;;12.33;;
980;SDS011;479;53.514;9.994;2023-10-13T07:52:22;15.63;;;12.70;;
980;SDS011;479;53.514;9.994;2023-10-13T07:55:01;18.40;;;14.53;;
980;SDS011;479;53.514;9.994;2023-10-13T07:57:36;15.77;;;12.20;;
980;SDS011;479;53.514;9.994;2023-10-13T08:00:18;14.10;;;11.47;;
980;SDS011;479;53.514;9.994;2023-10-13T08:02:59;12.67;;;10.03;;
980;SDS011;479;53.514;9.994;2023-10-13T08:05:42;12.80;;;10.70;;
980;SDS011;479;53.514;9.994;2023-10-13T08:08:21;12.47;;;10.73;;
980;SDS011;479;53.514;9.994;2023-10-13T08:10:51;13.97;;;10.30;;
980;SDS011;479;53.514;9.994;2023-10-13T08:13:21;14.37;;;11.97;;
980;SDS011;479;53.514;9.994;2023-10-13T08:15:48;12.20;;;10.67;;
980;SDS011;479;53.514;9.994;2023-10-13T08:18:19;15.17;;;11.37;;
980;SDS011;479;53.514;9.994;2023-10-13T08:20:56;13.40;;;10.70;;
980;SDS011;479;53.514;9.994;2023-10-13T08:23:28;12.03;;;10.10;;
980;SDS011;479;53.514;9.994;2023-10-13T08:26:20;14.47;;;11.50;;
980;SDS011;479;53.514;9.994;2023-10-13T08:29:04;19.00;;;13.53;;
980;SDS011;479;53.514;9.994;2023-10-13T08:31:45;14.30;;;11.60;;
980;SDS011;479;53.514;9.994;2023-10-13T08:34:31;11.90;;;10.00;;
980;SDS011;479;53.514;9.994;2023-10-13T08:37:04;14.23;;;10.27;;
980;SDS011;479;53.514;9.994;2023-10-13T08:39:44;18.80;;;12.77;;
980;SDS011;479;53.514;9.994;2023-10-13T08:42:40;14.80;;;10.53;;
980;SDS011;479;53.514;9.994;2023-10-13T08:45:36;10.60;;;9.43;;
980;SDS011;479;53.514;9.994;2023-10-13T08:48:21;18.70;;;12.30;;
980;SDS011;479;53.514;9.994;2023-10-13T08:50:58;10.67;;;8.63;;
980;SDS011;479;53.514;9.994;2023-10-13T08:53:35;9.30;;;8.30;;
980;SDS011;479;53.514;9.994;2023-10-13T08:56:11;9.87;;;7.83;;
980;SDS011;479;53.514;9.994;2023-10-13T08:58:41;6.67;;;6.03;;
980;SDS011;479;53.514;9.994;2023-10-13T09:01:26;8.70;;;6.17;;
980;SDS011;479;53.514;9.994;2023-10-13T09:04:02;5.80;;;5.23;;
980;SDS011;479;53.514;9.994;2023-10-13T09:06:45;6.00;;;5.40;;
980;SDS011;479;53.514;9.994;2023-10-13T09:09:26;5.47;;;4.97;;
980;SDS011;479;53.514;9.994;2023-10-13T09:11:52;7.33;;;5.73;;
980;SDS011;479;53.514;9.994;2023-10-13T09:14:33;7.50;;;6.07;;
980;SDS011;479;53.514;9.994;2023-10-13T09:17:02;8.80;;;6.20;;
980;SDS011;479;53.514;9.994;2023-10-13T09:19:46;4.90;;;4.40;;
980;SDS011;479;53.514;9.994;2023-10-13T09:22:25;5.40;;;4.40;;
980;SDS011;479;53.514;9.994;2023-10-13T09:24:55;5.37;;;4.87;;
980;SDS011;479;53.514;9.994;2023-10-13T09:27:25;4.83;;;4.10;;
980;SDS011;479;53.514;9.994;2023-10-13T09:29:56;6.70;;;5.80;;
980;SDS011;479;53.514;9.994;2023-10-13T09:32:35;7.17;;;6.13;;
980;SDS011;479;53.514;9.994;2023-10-13T09:35:11;5.93;;;5.33;;
980;SDS011;479;53.514;9.994;2023-10-13T09:37:45;8.20;;;6.00;;
980;SDS011;479;53.514;9.994;2023-10-13T09:40:14;7.10;;;6.50;;
980;SDS011;479;53.514;9.994;2023-10-13T09:42:50;6.70;;;6.00;;
980;SDS011;479;53.514;9.994;2023-10-13T09:45:22;11.40;;;7.90;;
980;SDS011;479;53.514;9.994;2023-10-13T09:47:54;6.03;;;4.43;;
980;SDS011;479;53.514;9.994;2023-10-13T09:50:25;6.10;;;4.87;;
980;SDS011;479;53.514;9.994;2023-10-13T09:53:00;5.33;;;4.50;;
980;SDS011;479;53.514;9.994;2023-10-13T09:55:26;7.83;;;7.07;;
980;SDS011;479;53.514;9.994;2023-10-13T09:57:58;6.80;;;5.50;;
980;SDS011;479;53.514;9.994;2023-10-13T10:00:35;12.40;;;6.83;;
980;SDS011;479;53.514;9.994;2023-10-13T10:03:21;8.63;;;5.90;;
980;SDS011;479;53.514;9.994;2023-10-13T10:06:05;6.37;;;5.77;;
980;SDS011;479;53.514;9.994;2023-10-13T10:08:41;5.77;;;5.27;;
980;SDS011;479;53.514;9.994;2023-10-13T10:14:28;9.00;;;5.20;;
980;SDS011;479;53.514;9.994;2023-10-13T10:17:20;6.73;;;5.13;;
980;SDS011;479;53.514;9.994;2023-10-13T10:19:48;6.90;;;6.20;;
980;SDS011;479;53.514;9.994;2023-10-13T10:22:24;6.50;;;5.57;;
980;SDS011;479;53.514;9.994;2023-10-13T10:24:57;8.70;;;6.10;;
980;SDS011;479;53.514;9.994;2023-10-13T10:27:24;8.40;;;5.70;;
980;SDS011;479;53.514;9.994;2023-10-13T10:29:55;8.17;;;5.50;;
980;SDS011;479;53.514;9.994;2023-10-13T10:32:34;6.60;;;5.10;;
980;SDS011;479;53.514;9.994;2023-10-13T10:35:02;9.63;;;6.57;;
980;SDS011;479;53.514;9.994;2023-10-13T10:37:33;9.60;;;8.70;;
980;SDS011;479;53.514;9.994;2023-10-13T10:40:08;8.87;;;6.90;;
980;SDS011;479;53.514;9.994;2023-10-13T10:42:47;9.23;;;6.37;;
980;SDS011;479;53.514;9.994;2023-10-13T10:45:17;5.73;;;5.10;;
980;SDS011;479;53.514;9.994;2023-10-13T10:47:47;7.13;;;6.40;;
980;SDS011;479;53.514;9.994;2023-10-13T10:50:24;8.30;;;6.80;;
980;SDS011;479;53.514;9.994;2023-10-13T10:53:00;8.47;;;6.13;;
980;SDS011;479;53.514;9.994;2023-10-13T10:55:35;9.53;;;7.17;;
980;SDS011;479;53.514;9.994;2023-10-13T10:58:02;8.33;;;7.23;;
980;SDS011;479;53.514;9.994;2023-10-13T11:00:31;11.80;;;6.23;;
980;SDS011;479;53.514;9.994;2023-10-13T11:03:11;9.80;;;6.97;;
980;SDS011;479;53.514;9.994;2023-10-13T11:05:44;6.57;;;5.97;;
980;SDS011;479;53.514;9.994;2023-10-13T11:08:21;6.53;;;5.57;;
980;SDS011;479;53.514;9.994;2023-10-13T11:10:58;7.30;;;6.47;;
980;SDS011;479;53.514;9.994;2023-10-13T11:13:26;8.90;;;7.00;;
980;SDS011;479;53.514;9.994;2023-10-13T11:15:56;8.50;;;6.43;;
980;SDS011;479;53.514;9.994;2023-10-13T11:18:29;6.23;;;5.73;;
980;SDS011;479;53.514;9.994;2023-10-13T11:20:59;10.57;;;6.17;;
980;SDS011;479;53.514;9.994;2023-10-13T11:23:30;7.70;;;7.00;;
980;SDS011;479;53.514;9.994;2023-10-13T11:26:01;7.77;;;6.07;;
980;SDS011;479;53.514;9.994;2023-10-13T11:28:29;6.70;;;5.73;;
980;SDS011;479;53.514;9.994;2023-10-13T11:30:57;13.43;;;6.70;;
980;SDS011;479;53.514;9.994;2023-10-13T11:33:25;7.83;;;5.50;;
980;SDS011;479;53.514;9.994;2023-10-13T11:35:54;8.30;;;5.67;;
980;SDS011;479;53.514;9.994;2023-10-13T11:38:28;6.10;;;5.07;;
980;SDS011;479;53.514;9.994;2023-10-13T11:41:02;10.97;;;5.90;;
980;SDS011;479;53.514;9.994;2023-10-13T11:43:40;5.60;;;5.10;;
980;SDS011;479;53.514;9.994;2023-10-13T11:46:30;10.03;;;7.13;;
980;SDS011;479;53.514;9.994;2023-10-13T11:49:15;5.30;;;3.70;;
980;SDS011;479;53.514;9.994;2023-10-13T11:51:56;7.47;;;5.30;;
980;SDS011;479;53.514;9.994;2023-10-13T11:54:34;6.13;;;5.00;;
980;SDS011;479;53.514;9.994;2023-10-13T11:57:08;13.57;;;7.10;;
980;SDS011;479;53.514;9.994;2023-10-13T11:59:35;5.90;;;5.27;;
980;SDS011;479;53.514;9.994;2023-10-13T12:02:10;9.03;;;6.37;;
980;SDS011;479;53.514;9.994;2023-10-13T12:04:55;6.30;;;5.70;;
980;SDS011;479;53.514;9.994;2023-10-13T12:07:24;4.30;;;3.80;;
980;SDS011;479;53.514;9.994;2023-10-13T12:10:05;5.57;;;5.07;;
980;SDS011;479;53.514;9.994;2023-10-13T12:12:43;7.60;;;4.70;;
980;SDS011;479;53.514;9.994;2023-10-13T12:15:14;5.53;;;4.53;;
980;SDS011;479;53.514;9.994;2023-10-13T12:17:51;5.90;;;3.60;;
980;SDS011;479;53.514;9.994;2023-10-13T12:20:18;11.53;;;5.03;;
980;SDS011;479;53.514;9.994;2023-10-13T12:22:58;7.50;;;5.33;;
980;SDS011;479;53.514;9.994;2023-10-13T12:25:36;6.80;;;4.60;;
980;SDS011;479;53.514;9.994;2023-10-13T12:28:22;7.30;;;5.50;;
980;SDS011;479;53.514;9.994;2023-10-13T12:30:53;10.27;;;5.03;;
980;SDS011;479;53.514;9.994;2023-10-13T12:33:22;6.23;;;4.50;;
980;SDS011;479;53.514;9.994;2023-10-13T12:35:57;8.50;;;4.47;;
980;SDS011;479;53.514;9.994;2023-10-13T12:38:34;6.63;;;5.37;;
980;SDS011;479;53.514;9.994;2023-10-13T12:41:22;4.97;;;3.80;;
980;SDS011;479;53.514;9.994;2023-10-13T12:44:22;10.00;;;5.20;;
980;SDS011;479;53.514;9.994;2023-10-13T12:47:07;6.20;;;5.50;;
980;SDS011;479;53.514;9.994;2023-10-13T12:49:52;7.77;;;4.33;;
980;SDS011;479;53.514;9.994;2023-10-13T12:52:25;4.20;;;3.90;;
980;SDS011;479;53.514;9.994;2023-10-13T12:54:52;4.73;;;4.13;;
980;SDS011;479;53.514;9.994;2023-10-13T12:57:31;6.17;;;4.87;;
980;SDS011;479;53.514;9.994;2023-10-13T13:00:00;4.37;;;3.13;;
980;SDS011;479;53.514;9.994;2023-10-13T13:02:41;6.97;;;4.57;;
980;SDS011;479;53.514;9.994;2023-10-13T13:05:08;7.43;;;4.73;;
980;SDS011;479;53.514;9.994;2023-10-13T13:07:38;6.07;;;5.20;;
980;SDS011;479;53.514;9.994;2023-10-13T13:10:12;3.30;;;2.97;;
980;SDS011;479;53.514;9.994;2023-10-13T13:12:40;7.30;;;4.33;;
980;SDS011;479;53.514;9.994;2023-10-13T13:15:14;8.47;;;4.80;;
980;SDS011;479;53.514;9.994;2023-10-13T13:18:03;7.50;;;4.37;;
980;SDS011;479;53.514;9.994;2023-10-13T13:21:02;7.73;;;5.00;;
980;SDS011;479;53.514;9.994;2023-10-13T13:23:31;5.43;;;4.73;;
980;SDS011;479;53.514;9.994;2023-10-13T13:25:59;7.83;;;5.17;;
980;SDS011;479;53.514;9.994;2023-10-13T13:28:26;6.83;;;4.73;;
980;SDS011;479;53.514;9.994;2023-10-13T13:30:56;10.10;;;6.30;;
980;SDS011;479;53.514;9.994;2023-10-13T13:33:24;9.00;;;4.40;;
980;SDS011;479;53.514;9.994;2023-10-13T13:36:04;6.57;;;5.73;;
980;SDS011;479;53.514;9.994;2023-10-13T13:38:31;5.90;;;5.30;;
980;SDS011;479;53.514;9.994;2023-10-13T13:40:58;10.50;;;5.90;;
980;SDS011;479;53.514;9.994;2023-10-13T13:43:27;5.47;;;4.97;;
980;SDS011;479;53.514;9.994;2023-10-13T13:46:17;7.17;;;5.50;;
980;SDS011;479;53.514;9.994;2023-10-13T13:48:44;7.10;;;5.17;;
980;SDS011;479;53.514;9.994;2023-10-13T13:51:16;7.97;;;5.70;;
980;SDS011;479;53.514;9.994;2023-10-13T13:53:45;5.70;;;5.20;;
980;SDS011;479;53.514;9.994;2023-10-13T13:56:13;6.17;;;4.23;;
980;SDS011;479;53.514;9.994;2023-10-13T13:58:41;6.07;;;5.40;;
980;SDS011;479;53.514;9.994;2023-10-13T14:01:08;8.50;;;5.70;;
980;SDS011;479;53.514;9.994;2023-10-13T14:03:41;6.57;;;5.30;;
980;SDS011;479;53.514;9.994;2023-10-13T14:06:15;7.07;;;4.73;;
980;SDS011;479;53.514;9.994;2023-10-13T14:08:44;7.80;;;5.80;;
980;SDS011;479;53.514;9.994;2023-10-13T14:11:14;8.07;;;5.53;;
980;SDS011;479;53.514;9.994;2023-10-13T14:14:08;10.27;;;5.87;;
980;SDS011;479;53.514;9.994;2023-10-13T14:16:37;8.47;;;5.50;;
980;SDS011;479;53.514;9.994;2023-10-13T14:19:11;13.40;;;6.93;;
980;SDS011;479;53.514;9.994;2023-10-13T14:21:38;11.00;;;5.23;;
980;SDS011;479;53.514;9.994;2023-10-13T14:24:05;12.93;;;7.10;;
980;SDS011;479;53.514;9.994;2023-10-13T14:26:40;8.10;;;5.33;;
980;SDS011;479;53.514;9.994;2023-10-13T14:29:09;5.83;;;5.23;;
980;SDS011;479;53.514;9.994;2023-10-13T14:31:39;7.70;;;6.00;;
980;SDS011;479;53.514;9.994;2023-10-13T14:34:07;6.60;;;6.00;;
980;SDS011;479;53.514;9.994;2023-10-13T14:36:36;9.73;;;6.27;;
980;SDS011;479;53.514;9.994;2023-10-13T14:39:04;10.00;;;7.97;;
980;SDS011;479;53.514;9.994;2023-10-13T14:41:34;9.77;;;5.00;;
980;SDS011;479;53.514;9.994;2023-10-13T14:44:03;8.80;;;6.90;;
980;SDS011;479;53.514;9.994;2023-10-13T14:46:31;5.73;;;5.10;;
980;SDS011;479;53.514;9.994;2023-10-13T14:49:01;8.53;;;4.90;;
980;SDS011;479;53.514;9.994;2023-10-13T14:51:28;10.27;;;5.80;;
980;SDS011;479;53.514;9.994;2023-10-13T14:53:58;9.07;;;5.70;;
980;SDS011;479;53.514;9.994;2023-10-13T14:56:26;8.80;;;6.10;;
980;SDS011;479;53.514;9.994;2023-10-13T14:58:53;9.10;;;6.60;;
980;SDS011;479;53.514;9.994;2023-10-13T15:01:21;9.17;;;5.80;;
980;SDS011;479;53.514;9.994;2023-10-13T15:03:52;11.20;;;6.23;;
980;SDS011;479;53.514;9.994;2023-10-13T15:06:22;8.60;;;6.70;;
980;SDS011;479;53.514;9.994;2023-10-13T15:08:54;5.93;;;5.13;;
980;SDS011;479;53.514;9.994;2023-10-13T15:11:24;10.93;;;5.53;;
980;SDS011;479;53.514;9.994;2023-10-13T15:13:52;8.50;;;6.70;;
980;SDS011;479;53.514;9.994;2023-10-13T15:16:21;9.73;;;6.20;;
980;SDS011;479;53.514;9.994;2023-10-13T15:18:49;10.53;;;5.83;;
980;SDS011;479;53.514;9.994;2023-10-13T15:21:20;5.90;;;5.10;;
980;SDS011;479;53.514;9.994;2023-10-13T15:23:51;12.10;;;7.30;;
980;SDS011;479;53.514;9.994;2023-10-13T15:26:18;8.50;;;6.53;;
980;SDS011;479;53.514;9.994;2023-10-13T15:28:48;8.43;;;5.33;;
980;SDS011;479;53.514;9.994;2023-10-13T15:31:18;9.33;;;4.83;;
980;SDS011;479;53.514;9.994;2023-10-13T15:33:51;9.77;;;4.90;;
980;SDS011;479;53.514;9.994;2023-10-13T15:36:28;11.47;;;6.33;;
980;SDS011;479;53.514;9.994;2023-10-13T15:38:56;20.50;;;12.50;;
980;SDS011;479;53.514;9.994;2023-10-13T15:41:24;10.80;;;6.07;;
980;SDS011;479;53.514;9.994;2023-10-13T15:43:54;10.77;;;6.93;;
980;SDS011;479;53.514;9.994;2023-10-13T15:46:22;8.07;;;6.07;;
980;SDS011;479;53.514;9.994;2023-10-13T15:48:49;13.63;;;6.10;;
980;SDS011;479;53.514;9.994;2023-10-13T15:51:17;10.93;;;4.90;;
980;SDS011;479;53.514;9.994;2023-10-13T15:53:45;14.47;;;11.57;;
980;SDS011;479;53.514;9.994;2023-10-13T15:56:14;12.63;;;7.03;;
980;SDS011;479;53.514;9.994;2023-10-13T15:58:42;14.20;;;6.13;;
980;SDS011;479;53.514;9.994;2023-10-13T16:01:12;8.77;;;6.43;;
980;SDS011;479;53.514;9.994;2023-10-13T16:03:39;5.60;;;4.83;;
980;SDS011;479;53.514;9.994;2023-10-13T16:06:08;6.00;;;5.27;;
980;SDS011;479;53.514;9.994;2023-10-13T16:08:36;7.53;;;6.23;;
980;SDS011;479;53.514;9.994;2023-10-13T16:11:04;11.30;;;6.20;;
980;SDS011;479;53.514;9.994;2023-10-13T16:13:33;6.93;;;4.67;;
980;SDS011;479;53.514;9.994;2023-10-13T16:16:02;13.40;;;5.40;;
980;SDS011;479;53.514;9.994;2023-10-13T16:18:30;13.53;;;8.40;;
980;SDS011;479;53.514;9.994;2023-10-13T16:20:58;9.00;;;5.93;;
980;SDS011;479;53.514;9.994;2023-10-13T16:23:28;12.30;;;7.33;;